createdAt,value
2019-05-18T00:01:33.858Z,24.82
2019-05-18T00:04:02.577Z,24.43
2019-05-18T00:06:31.269Z,23.92
2019-05-18T00:09:00.009Z,23.60
2019-05-18T00:11:28.748Z,23.47
2019-05-18T00:13:57.465Z,24.75
2019-05-18T00:16:26.150Z,23.80
2019-05-18T00:18:54.890Z,23.80
2019-05-18T00:21:23.564Z,23.32
2019-05-18T00:23:52.305Z,23.50
2019-05-18T00:26:21.026Z,24.12
2019-05-18T00:28:49.778Z,24.05
2019-05-18T00:31:18.502Z,24.70
2019-05-18T00:33:47.256Z,23.15
2019-05-18T00:36:15.980Z,24.25
2019-05-18T00:38:44.717Z,24.75
2019-05-18T00:41:13.457Z,24.72
2019-05-18T00:43:42.193Z,25.43
2019-05-18T00:46:10.918Z,25.05
2019-05-18T00:48:39.663Z,25.43
2019-05-18T00:51:08.400Z,24.32
2019-05-18T00:53:37.148Z,24.57
2019-05-18T00:56:06.059Z,25.40
2019-05-18T00:58:34.836Z,24.72
2019-05-18T01:01:03.578Z,24.20
2019-05-18T01:03:32.334Z,24.05
2019-05-18T01:06:01.057Z,26.35
2019-05-18T01:08:29.777Z,25.45
2019-05-18T01:10:58.452Z,25.88
2019-05-18T01:13:27.202Z,26.25
2019-05-18T01:15:55.939Z,24.98
2019-05-18T01:18:24.698Z,25.88
2019-05-18T01:20:53.490Z,25.02
2019-05-18T01:23:22.156Z,24.95
2019-05-18T01:25:50.901Z,24.15
2019-05-18T01:28:19.625Z,24.35
2019-05-18T01:30:48.395Z,25.15
2019-05-18T01:33:17.094Z,25.30
2019-05-18T01:35:45.914Z,24.92
2019-05-18T01:38:14.659Z,25.02
2019-05-18T01:40:43.379Z,25.92
2019-05-18T01:43:12.129Z,24.95
2019-05-18T01:45:40.877Z,26.82
2019-05-18T01:48:14.086Z,26.45
2019-05-18T01:50:39.974Z,26.10
2019-05-18T01:53:08.785Z,25.77
2019-05-18T01:55:37.542Z,27.73
2019-05-18T01:58:06.312Z,27.87
2019-05-18T02:00:34.990Z,28.02
2019-05-18T02:03:03.834Z,26.93
2019-05-18T02:05:32.537Z,26.48
2019-05-18T02:08:01.284Z,27.95
2019-05-18T02:10:30.074Z,28.87
2019-05-18T02:12:58.824Z,28.30
2019-05-18T02:15:27.570Z,27.27
2019-05-18T02:17:56.306Z,29.02
2019-05-18T02:20:25.069Z,29.12
2019-05-18T02:22:53.825Z,26.70
2019-05-18T02:25:22.594Z,26.87
2019-05-18T02:27:51.325Z,27.80
2019-05-18T02:30:20.201Z,26.40
2019-05-18T02:32:48.963Z,26.62
2019-05-18T02:35:17.760Z,28.70
2019-05-18T02:37:46.486Z,27.50
2019-05-18T02:40:16.215Z,27.02
2019-05-18T02:42:46.097Z,27.35
2019-05-18T02:45:16.457Z,28.57
2019-05-18T02:47:45.183Z,27.95
2019-05-18T02:50:14.744Z,28.45
2019-05-18T02:52:43.477Z,30.72
2019-05-18T02:55:13.580Z,30.82
2019-05-18T02:57:42.295Z,30.57
2019-05-18T03:00:11.674Z,29.32
2019-05-18T03:02:40.409Z,28.20
2019-05-18T03:05:09.386Z,28.27
2019-05-18T03:07:38.086Z,28.25
2019-05-18T03:10:07.555Z,28.87
2019-05-18T03:12:36.320Z,26.77
2019-05-18T03:15:06.557Z,28.65
2019-05-18T03:17:35.563Z,27.62
2019-05-18T03:20:09.046Z,27.48
2019-05-18T03:22:37.857Z,26.10
2019-05-18T03:25:07.330Z,26.52
2019-05-18T03:27:36.235Z,26.12
2019-05-18T03:30:07.615Z,26.70
2019-05-18T03:32:36.398Z,24.75
2019-05-18T03:35:05.706Z,23.75
2019-05-18T03:37:34.427Z,23.73
2019-05-18T03:40:04.694Z,25.10
2019-05-18T03:42:33.529Z,24.57
2019-05-18T03:45:02.268Z,24.65
2019-05-18T03:47:30.997Z,24.63
2019-05-18T03:49:59.743Z,24.12
2019-05-18T03:52:28.481Z,24.02
2019-05-18T03:54:57.229Z,23.50
2019-05-18T03:57:25.954Z,23.92
2019-05-18T03:59:54.762Z,24.67
2019-05-18T04:02:23.493Z,24.52
2019-05-18T04:04:52.239Z,26.25
2019-05-18T04:07:20.962Z,24.23
2019-05-18T04:09:49.701Z,24.63
2019-05-18T04:12:18.432Z,24.90
2019-05-18T04:14:47.182Z,25.25
2019-05-18T04:17:15.936Z,27.48
2019-05-18T04:19:46.752Z,25.32
2019-05-18T04:22:15.040Z,25.08
2019-05-18T04:24:43.782Z,25.20
2019-05-18T04:27:12.526Z,24.98
2019-05-18T04:29:41.838Z,24.23
2019-05-18T04:32:10.578Z,24.37
2019-05-18T04:34:39.259Z,23.57
2019-05-18T04:37:07.988Z,23.73
2019-05-18T04:39:36.858Z,23.77
2019-05-18T04:42:05.604Z,23.55
2019-05-18T04:44:34.337Z,23.80
2019-05-18T04:47:03.085Z,24.18
2019-05-18T04:49:31.821Z,25.43
2019-05-18T04:52:00.563Z,23.52
2019-05-18T04:54:29.307Z,25.17
2019-05-18T04:56:58.030Z,25.23
2019-05-18T04:59:26.779Z,25.00
2019-05-18T05:01:55.545Z,25.05
2019-05-18T05:04:24.287Z,26.60
2019-05-18T05:06:53.010Z,26.82
2019-05-18T05:09:21.754Z,24.98
2019-05-18T05:11:50.505Z,27.98
2019-05-18T05:14:19.231Z,27.50
2019-05-18T05:16:48.039Z,27.45
2019-05-18T05:19:16.690Z,29.10
2019-05-18T05:21:45.337Z,31.35
2019-05-18T05:24:13.970Z,30.70
2019-05-18T05:26:42.883Z,30.48
2019-05-18T05:29:11.609Z,28.77
2019-05-18T05:31:40.354Z,30.65
2019-05-18T05:34:09.076Z,31.33
2019-05-18T05:36:37.820Z,31.97
2019-05-18T05:39:07.027Z,31.15
2019-05-18T05:41:35.768Z,32.15
2019-05-18T05:44:04.554Z,31.30
2019-05-18T05:46:33.313Z,32.10
2019-05-18T05:49:02.058Z,33.05
2019-05-18T05:51:30.774Z,33.90
2019-05-18T05:53:59.427Z,33.90
2019-05-18T05:56:28.168Z,34.20
2019-05-18T05:58:56.907Z,33.23
2019-05-18T06:01:25.628Z,33.33
2019-05-18T06:03:54.354Z,33.53
2019-05-18T06:06:23.257Z,33.53
2019-05-18T06:08:51.963Z,32.33
2019-05-18T06:11:20.708Z,32.70
2019-05-18T06:13:49.417Z,32.33
2019-05-18T06:16:18.146Z,32.20
2019-05-18T06:18:46.817Z,32.45
2019-05-18T06:21:15.534Z,32.40
2019-05-18T06:23:44.346Z,32.45
2019-05-18T06:26:13.148Z,34.13
2019-05-18T06:28:41.878Z,34.67
2019-05-18T06:31:10.636Z,35.23
2019-05-18T06:33:39.384Z,34.43
2019-05-18T06:36:08.157Z,33.78
2019-05-18T06:38:36.891Z,33.35
2019-05-18T06:41:05.627Z,33.42
2019-05-18T06:43:34.381Z,34.60
2019-05-18T06:46:03.113Z,32.53
2019-05-18T06:48:31.943Z,30.82
2019-05-18T06:51:07.059Z,31.33
2019-05-18T06:56:02.834Z,31.77
2019-05-18T06:58:31.897Z,31.12
2019-05-18T07:01:00.641Z,31.75
2019-05-18T07:03:29.343Z,35.03
2019-05-18T07:05:58.089Z,35.03
2019-05-18T07:08:26.810Z,37.80
2019-05-18T07:10:55.569Z,34.18
2019-05-18T07:13:24.327Z,33.75
2019-05-18T07:15:53.090Z,33.50
2019-05-18T07:18:21.827Z,35.65
2019-05-18T07:20:50.571Z,35.33
2019-05-18T07:23:19.310Z,33.42
2019-05-18T07:25:48.106Z,35.95
2019-05-18T07:28:16.876Z,36.05
2019-05-18T07:30:45.610Z,38.08
2019-05-18T07:33:14.257Z,39.33
2019-05-18T07:35:42.984Z,39.88
2019-05-18T07:38:11.744Z,39.50
2019-05-18T07:40:40.491Z,40.40
2019-05-18T07:43:09.205Z,40.50
2019-05-18T07:45:37.930Z,41.42
2019-05-18T07:48:06.787Z,43.25
2019-05-18T07:50:35.533Z,40.95
2019-05-18T07:53:04.278Z,40.88
2019-05-18T07:55:33.016Z,40.28
2019-05-18T07:58:01.854Z,42.93
2019-05-18T08:00:30.582Z,43.73
2019-05-18T08:02:59.566Z,44.90
2019-05-18T08:05:28.797Z,41.92
2019-05-18T08:07:58.884Z,43.08
2019-05-18T08:10:30.704Z,43.28
2019-05-18T08:12:59.434Z,43.02
2019-05-18T08:15:28.258Z,43.60
2019-05-18T08:17:56.998Z,43.90
2019-05-18T08:20:25.761Z,43.20
2019-05-18T08:22:54.506Z,42.93
2019-05-18T08:25:23.301Z,41.77
2019-05-18T08:27:53.753Z,42.62
2019-05-18T08:30:22.505Z,40.50
2019-05-18T08:32:52.784Z,42.20
2019-05-18T08:35:21.526Z,42.23
2019-05-18T08:37:50.278Z,41.45
2019-05-18T08:40:19.982Z,41.35
2019-05-18T08:42:48.711Z,40.67
2019-05-18T08:45:17.982Z,42.27
2019-05-18T08:47:46.726Z,42.33
2019-05-18T08:50:15.523Z,41.88
2019-05-18T08:52:44.263Z,43.70
2019-05-18T08:55:13.630Z,42.17
2019-05-18T08:57:42.360Z,42.48
2019-05-18T09:00:12.344Z,42.17
2019-05-18T09:02:41.150Z,41.90
2019-05-18T09:05:10.542Z,41.63
2019-05-18T09:07:39.339Z,40.98
2019-05-18T09:10:08.523Z,42.35
2019-05-18T09:12:37.280Z,43.20
2019-05-18T09:15:07.738Z,42.40
2019-05-18T09:17:36.476Z,40.65
2019-05-18T09:20:07.570Z,39.45
2019-05-18T09:22:36.298Z,41.83
2019-05-18T09:25:08.359Z,39.48
2019-05-18T09:27:37.094Z,39.78
2019-05-18T09:30:08.261Z,41.02
2019-05-18T09:32:37.689Z,40.52
2019-05-18T09:35:08.576Z,39.30
2019-05-18T09:37:37.313Z,38.25
2019-05-18T09:40:07.772Z,39.78
2019-05-18T09:42:36.496Z,40.38
2019-05-18T09:45:07.056Z,38.70
2019-05-18T09:47:35.859Z,38.75
2019-05-18T09:50:05.846Z,38.13
2019-05-18T09:52:44.975Z,37.90
2019-05-18T09:55:08.553Z,38.38
2019-05-18T09:57:37.307Z,35.73
2019-05-18T10:00:10.538Z,36.20
2019-05-18T10:02:39.351Z,37.30
2019-05-18T10:05:08.246Z,38.35
2019-05-18T10:07:36.982Z,38.17
2019-05-18T10:10:07.874Z,37.85
2019-05-18T10:12:36.590Z,38.00
2019-05-18T10:15:07.090Z,36.35
2019-05-18T10:17:35.859Z,35.90
2019-05-18T10:20:08.170Z,36.63
2019-05-18T10:22:36.897Z,37.93
2019-05-18T10:25:07.311Z,35.90
2019-05-18T10:27:36.119Z,37.28
2019-05-18T10:30:08.227Z,36.00
2019-05-18T10:32:38.426Z,33.55
2019-05-18T10:35:07.762Z,33.88
2019-05-18T10:37:38.718Z,32.73
2019-05-18T10:40:10.286Z,32.67
2019-05-18T10:42:41.210Z,30.32
2019-05-18T10:45:10.787Z,32.25
2019-05-18T10:47:41.023Z,34.00
2019-05-18T10:50:11.064Z,32.42
2019-05-18T10:52:39.851Z,36.23
2019-05-18T10:55:09.651Z,34.88
2019-05-18T10:57:38.390Z,31.57
2019-05-18T11:00:09.282Z,34.33
2019-05-18T11:02:37.989Z,29.02
2019-05-18T11:05:08.058Z,30.35
2019-05-18T11:07:36.815Z,29.48
2019-05-18T11:10:07.385Z,29.72
2019-05-18T11:12:36.146Z,28.23
2019-05-18T11:15:07.159Z,31.52
2019-05-18T11:17:35.975Z,30.02
2019-05-18T11:20:07.722Z,30.60
2019-05-18T11:22:36.499Z,27.62
2019-05-18T11:25:06.710Z,22.15
2019-05-18T11:27:35.586Z,23.70
2019-05-18T11:30:06.279Z,28.12
2019-05-18T11:32:35.011Z,28.80
2019-05-18T11:35:05.304Z,23.77
2019-05-18T11:37:34.091Z,26.60
2019-05-18T11:40:03.907Z,26.75
2019-05-18T11:42:32.626Z,27.40
2019-05-18T11:45:01.491Z,25.82
2019-05-18T11:47:30.294Z,25.50
2019-05-18T11:49:59.268Z,24.60
2019-05-18T11:52:28.420Z,25.43
2019-05-18T11:54:57.178Z,24.50
2019-05-18T11:57:25.926Z,24.00
2019-05-18T11:59:54.666Z,22.37
2019-05-18T12:02:23.452Z,23.75
2019-05-18T12:04:52.197Z,20.77
2019-05-18T12:07:20.943Z,17.57
2019-05-18T12:09:49.702Z,15.08
2019-05-18T12:12:18.586Z,21.00
2019-05-18T12:14:47.347Z,18.70
2019-05-18T12:17:16.182Z,19.25
2019-05-18T12:19:44.914Z,18.52
2019-05-18T12:22:13.646Z,17.80
2019-05-18T12:24:42.409Z,19.48
2019-05-18T12:27:11.217Z,21.17
2019-05-18T12:29:39.978Z,22.30
2019-05-18T12:32:08.743Z,20.35
2019-05-18T12:34:37.489Z,18.57
2019-05-18T12:37:06.258Z,16.57
2019-05-18T12:39:35.064Z,19.32
2019-05-18T12:42:03.894Z,18.02
2019-05-18T12:44:32.709Z,17.50
2019-05-18T12:47:01.452Z,16.27
2019-05-18T12:49:30.314Z,14.45
2019-05-18T12:51:59.163Z,13.25
2019-05-18T12:54:33.991Z,12.43
2019-05-18T12:56:58.362Z,12.55
2019-05-18T12:59:27.163Z,12.40
2019-05-18T13:01:55.972Z,13.40
2019-05-18T13:04:24.828Z,11.73
2019-05-18T13:06:53.553Z,12.15
2019-05-18T13:09:23.774Z,11.93
2019-05-18T13:11:53.666Z,10.98
2019-05-18T13:14:22.402Z,10.85
2019-05-18T13:16:51.267Z,11.40
2019-05-18T13:19:19.970Z,11.97
2019-05-18T13:21:48.767Z,11.63
2019-05-18T13:24:17.551Z,11.60
2019-05-18T13:26:46.292Z,12.75
2019-05-18T13:29:15.173Z,11.33
2019-05-18T13:31:43.916Z,10.93
2019-05-18T13:34:12.772Z,12.73
2019-05-18T13:36:41.494Z,14.70
2019-05-18T13:39:10.312Z,12.47
2019-05-18T13:41:39.039Z,12.60
2019-05-18T13:44:07.849Z,13.72
2019-05-18T13:46:36.612Z,14.23
2019-05-18T13:49:05.347Z,14.73
2019-05-18T13:51:34.077Z,12.75
2019-05-18T13:54:02.814Z,14.35
2019-05-18T13:56:31.567Z,13.60
2019-05-18T13:59:00.289Z,13.78
2019-05-18T14:01:29.042Z,12.00
2019-05-18T14:03:57.791Z,11.35
2019-05-18T14:06:26.522Z,11.43
2019-05-18T14:08:55.341Z,12.82
2019-05-18T14:11:26.583Z,11.97
2019-05-18T14:13:55.320Z,11.83
2019-05-18T14:16:24.062Z,11.63
2019-05-18T14:18:52.806Z,12.25
2019-05-18T14:21:21.538Z,11.55
2019-05-18T14:23:50.286Z,11.73
2019-05-18T14:26:19.037Z,11.57
2019-05-18T14:28:47.771Z,11.05
2019-05-18T14:31:16.508Z,12.10
2019-05-18T14:33:45.244Z,11.68
2019-05-18T14:36:14.240Z,11.68
2019-05-18T14:38:42.913Z,11.35
2019-05-18T14:41:11.656Z,11.15
2019-05-18T14:43:40.401Z,10.38
2019-05-18T14:46:09.234Z,13.05
2019-05-18T14:48:37.938Z,11.90
2019-05-18T14:51:06.747Z,9.95
2019-05-18T14:53:38.430Z,11.10
2019-05-18T14:56:07.237Z,10.10
2019-05-18T14:58:35.902Z,10.63
2019-05-18T15:01:04.637Z,11.20
2019-05-18T15:03:33.344Z,9.93
2019-05-18T15:06:02.107Z,9.48
2019-05-18T15:08:30.843Z,10.40
2019-05-18T15:10:59.584Z,10.55
2019-05-18T15:13:28.326Z,12.33
2019-05-18T15:15:57.088Z,12.58
2019-05-18T15:18:25.858Z,13.75
2019-05-18T15:20:54.580Z,13.53
2019-05-18T15:23:23.354Z,14.33
2019-05-18T15:25:52.117Z,14.18
2019-05-18T15:28:20.860Z,14.75
2019-05-18T15:30:49.657Z,16.17
2019-05-18T15:33:18.371Z,17.37
2019-05-18T15:35:47.132Z,18.02
2019-05-18T15:38:15.952Z,17.17
2019-05-18T15:40:44.743Z,17.45
2019-05-18T15:43:13.486Z,16.65
2019-05-18T15:45:42.298Z,14.90
2019-05-18T15:48:11.034Z,15.00
2019-05-18T15:50:39.858Z,16.57
2019-05-18T15:53:08.592Z,15.78
2019-05-18T15:55:37.381Z,16.35
2019-05-18T15:58:06.128Z,16.17
2019-05-18T16:00:34.941Z,15.53
2019-05-18T16:03:03.683Z,14.45
2019-05-18T16:05:32.489Z,14.40
2019-05-18T16:08:01.245Z,15.25
2019-05-18T16:10:30.113Z,16.75
2019-05-18T16:12:58.870Z,16.10
2019-05-18T16:15:27.631Z,17.45
2019-05-18T16:17:56.387Z,17.35
2019-05-18T16:20:25.242Z,18.00
2019-05-18T16:22:53.985Z,18.55
2019-05-18T16:25:22.850Z,18.90
2019-05-18T16:27:51.609Z,20.08
2019-05-18T16:30:20.571Z,20.55
2019-05-18T16:32:49.313Z,20.85
2019-05-18T16:35:18.198Z,21.20
2019-05-18T16:37:46.954Z,19.77
2019-05-18T16:40:16.643Z,20.55
2019-05-18T16:42:46.670Z,17.98
2019-05-18T16:45:15.972Z,17.20
2019-05-18T16:47:44.799Z,18.25
2019-05-18T16:50:14.148Z,19.15
2019-05-18T16:52:42.890Z,19.67
2019-05-18T16:55:11.901Z,19.85
2019-05-18T16:57:40.674Z,20.62
2019-05-18T17:00:16.234Z,20.52
2019-05-18T17:02:44.168Z,19.70
2019-05-18T17:05:14.010Z,21.15
2019-05-18T17:07:42.796Z,21.30
2019-05-18T17:10:12.237Z,32.75
2019-05-18T17:12:44.040Z,27.73
2019-05-18T17:15:13.923Z,20.72
2019-05-18T17:17:42.653Z,20.00
2019-05-18T17:20:13.523Z,19.48
2019-05-18T17:22:42.272Z,18.45
2019-05-18T17:25:11.158Z,17.57
2019-05-18T17:27:39.906Z,18.95
2019-05-18T17:30:09.890Z,17.92
2019-05-18T17:32:38.638Z,17.37
2019-05-18T17:35:08.718Z,17.57
2019-05-18T17:37:37.440Z,17.05
2019-05-18T17:40:06.668Z,17.75
2019-05-18T17:42:35.459Z,17.95
2019-05-18T17:45:08.678Z,17.87
2019-05-18T17:50:09.402Z,17.73
2019-05-18T17:52:38.147Z,18.25
2019-05-18T17:55:07.780Z,19.40
2019-05-18T17:57:36.488Z,21.80
2019-05-18T18:00:06.966Z,21.40
2019-05-18T18:02:35.878Z,23.70
2019-05-18T18:05:06.761Z,24.47
2019-05-18T18:07:35.598Z,23.57
2019-05-18T18:10:06.008Z,25.40
2019-05-18T18:12:34.759Z,23.87
2019-05-18T18:15:05.618Z,25.72
2019-05-18T18:17:34.350Z,26.65
2019-05-18T18:20:03.550Z,26.27
2019-05-18T18:22:32.293Z,25.00
2019-05-18T18:25:01.026Z,26.00
2019-05-18T18:27:29.864Z,27.45
2019-05-18T18:29:58.610Z,28.73
2019-05-18T18:32:27.318Z,33.48
2019-05-18T18:34:56.070Z,32.00
2019-05-18T18:37:24.800Z,34.73
2019-05-18T18:39:53.630Z,32.20
2019-05-18T18:42:22.381Z,31.55
2019-05-18T18:44:51.125Z,36.15
2019-05-18T18:47:19.962Z,38.67
2019-05-18T18:49:48.708Z,44.25
2019-05-18T18:52:17.497Z,42.17
2019-05-18T18:54:46.262Z,46.90
2019-05-18T18:57:14.985Z,39.00
2019-05-18T18:59:43.708Z,41.90
2019-05-18T19:02:12.456Z,40.52
2019-05-18T19:04:41.331Z,40.10
2019-05-18T19:07:10.067Z,41.13
2019-05-18T19:09:38.805Z,42.43
2019-05-18T19:12:07.526Z,41.95
2019-05-18T19:14:36.273Z,41.00
2019-05-18T19:17:05.021Z,43.48
2019-05-18T19:19:33.758Z,41.63
2019-05-18T19:22:02.504Z,43.02
2019-05-18T19:24:31.244Z,44.03
2019-05-18T19:27:00.018Z,42.83
2019-05-18T19:29:28.737Z,43.85
2019-05-18T19:31:57.466Z,45.08
2019-05-18T19:34:26.211Z,45.33
2019-05-18T19:36:54.958Z,45.20
2019-05-18T19:39:23.681Z,46.18
2019-05-18T19:41:52.433Z,44.93
2019-05-18T19:44:23.828Z,46.37
2019-05-18T19:46:51.513Z,47.62
2019-05-18T19:49:20.310Z,65.35
2019-05-18T19:51:49.056Z,46.73
2019-05-18T19:54:17.809Z,52.45
2019-05-18T19:56:46.919Z,47.33
2019-05-18T19:59:16.134Z,46.90
2019-05-18T20:01:44.801Z,47.35
2019-05-18T20:04:13.580Z,48.25
2019-05-18T20:06:42.479Z,49.90
2019-05-18T20:09:11.246Z,49.55
2019-05-18T20:11:39.973Z,47.95
2019-05-18T20:14:08.697Z,47.95
2019-05-18T20:16:37.486Z,72.05
2019-05-18T20:19:06.265Z,47.70
2019-05-18T20:21:35.050Z,48.10
2019-05-18T20:24:03.907Z,46.92
2019-05-18T20:26:32.669Z,46.60
2019-05-18T20:29:01.555Z,46.70
2019-05-18T20:31:30.622Z,46.90
2019-05-18T20:33:59.379Z,47.20
2019-05-18T20:36:28.112Z,47.90
2019-05-18T20:38:56.865Z,47.83
2019-05-18T20:41:25.625Z,47.23
2019-05-18T20:43:54.355Z,47.08
2019-05-18T20:46:23.109Z,48.13
2019-05-18T20:48:51.848Z,47.33
2019-05-18T20:51:20.593Z,48.05
2019-05-18T20:53:49.316Z,47.45
2019-05-18T20:56:18.070Z,48.30
2019-05-18T20:58:46.809Z,48.92
2019-05-18T21:01:15.522Z,48.45
2019-05-18T21:03:44.253Z,53.05
2019-05-18T21:06:12.993Z,59.50
2019-05-18T21:08:41.789Z,52.40
2019-05-18T21:11:10.494Z,55.30
2019-05-18T21:13:39.279Z,54.30
2019-05-18T21:16:09.346Z,50.17
2019-05-18T21:18:39.774Z,49.67
2019-05-18T21:21:10.199Z,50.40
2019-05-18T21:23:40.538Z,50.58
2019-05-18T21:26:09.260Z,51.42
2019-05-18T21:28:38.017Z,51.60
2019-05-18T21:31:06.743Z,65.37
2019-05-18T21:33:35.502Z,54.85
2019-05-18T21:36:04.313Z,52.55
2019-05-18T21:38:33.609Z,52.48
2019-05-18T21:41:02.350Z,51.90
2019-05-18T21:43:31.006Z,50.98
2019-05-18T21:45:59.690Z,52.20
2019-05-18T21:48:28.401Z,51.53
2019-05-18T21:50:57.053Z,50.52
2019-05-18T21:53:25.809Z,50.85
2019-05-18T21:55:54.546Z,53.30
2019-05-18T21:58:23.302Z,53.25
2019-05-18T22:00:52.050Z,52.05
2019-05-18T22:03:20.794Z,53.17
2019-05-18T22:05:49.506Z,54.83
2019-05-18T22:08:18.286Z,52.90
2019-05-18T22:10:47.004Z,53.55
2019-05-18T22:13:15.746Z,53.30
2019-05-18T22:15:44.470Z,54.10
2019-05-18T22:18:24.126Z,53.23
2019-05-18T22:20:44.503Z,55.23
2019-05-18T22:23:13.629Z,54.70
2019-05-18T22:25:42.349Z,54.27
2019-05-18T22:28:11.093Z,53.58
2019-05-18T22:30:39.946Z,53.13
2019-05-18T22:33:08.963Z,53.15
2019-05-18T22:35:37.719Z,53.95
2019-05-18T22:38:06.457Z,55.95
2019-05-18T22:40:35.152Z,54.60
2019-05-18T22:43:03.964Z,53.23
2019-05-18T22:45:32.693Z,54.38
2019-05-18T22:48:01.437Z,54.95
2019-05-18T22:50:30.172Z,53.83
2019-05-18T22:52:58.915Z,53.90
2019-05-18T22:55:27.658Z,54.03
2019-05-18T22:57:56.396Z,55.58
2019-05-18T23:00:25.204Z,54.75
2019-05-18T23:02:54.001Z,54.80
2019-05-18T23:05:22.671Z,54.23
2019-05-18T23:07:51.394Z,52.33
2019-05-18T23:10:20.272Z,55.45
2019-05-18T23:12:49.073Z,54.15
2019-05-18T23:15:18.147Z,54.70
2019-05-18T23:17:46.869Z,57.45
2019-05-18T23:20:15.854Z,53.75
2019-05-18T23:22:44.611Z,55.23
2019-05-18T23:25:13.404Z,53.92
2019-05-18T23:27:42.134Z,55.05
2019-05-18T23:30:12.109Z,55.98
2019-05-18T23:32:40.833Z,58.25
2019-05-18T23:35:09.717Z,56.70
2019-05-18T23:37:38.439Z,56.42
2019-05-18T23:40:08.025Z,53.08
2019-05-18T23:42:36.748Z,54.90
2019-05-18T23:45:06.725Z,56.60
2019-05-18T23:47:35.481Z,54.13
2019-05-18T23:50:04.947Z,58.20
2019-05-18T23:52:33.686Z,56.20
2019-05-18T23:55:06.072Z,56.90
2019-05-18T23:57:34.893Z,56.68
